createdAt,value
2018-01-03T17:10:02.640Z,6.80
2018-01-03T17:12:13.031Z,8.50
2018-01-03T17:14:23.717Z,6.87
2018-01-03T17:16:33.779Z,7.20
2018-01-03T17:18:43.810Z,6.80
2018-01-03T17:20:54.064Z,5.77
2018-01-03T17:23:04.231Z,5.70
2018-01-03T17:25:15.605Z,8.73
2018-01-03T17:27:25.744Z,7.73
2018-01-03T17:29:35.861Z,5.47
2018-01-03T17:31:46.250Z,7.03
2018-01-03T17:33:57.713Z,6.20
2018-01-03T17:36:07.882Z,6.30
2018-01-03T17:38:17.946Z,6.50
2018-01-03T17:40:28.458Z,6.97
2018-01-03T17:42:38.765Z,6.10
2018-01-03T17:44:48.841Z,5.30
2018-01-03T17:46:59.050Z,5.37
2018-01-03T17:49:10.052Z,5.60
2018-01-03T17:51:20.226Z,7.20
2018-01-03T17:53:30.152Z,7.37
2018-01-03T17:55:40.383Z,5.90
2018-01-03T17:57:51.064Z,6.33
2018-01-03T18:00:01.238Z,6.20
2018-01-03T18:02:11.657Z,6.20
2018-01-03T18:04:22.180Z,7.70
2018-01-03T18:06:32.333Z,10.00
2018-01-03T18:08:42.707Z,8.47
2018-01-03T18:10:53.748Z,9.00
2018-01-03T18:13:03.873Z,10.10
2018-01-03T18:15:14.577Z,9.90
2018-01-03T18:17:24.698Z,28.43
2018-01-03T18:19:34.901Z,84.23
2018-01-03T18:21:46.138Z,85.17
2018-01-03T18:23:56.959Z,82.17
2018-01-03T18:26:07.240Z,76.77
2018-01-03T18:28:17.348Z,73.57
2018-01-03T18:30:27.530Z,68.77
2018-01-03T18:32:37.718Z,65.80
2018-01-03T18:34:48.813Z,118.13
2018-01-03T18:36:59.307Z,116.60
2018-01-03T18:39:09.575Z,111.47
2018-01-03T18:41:19.834Z,99.40
2018-01-03T18:43:30.832Z,93.13
2018-01-03T18:45:44.484Z,88.60
2018-01-03T18:47:58.069Z,80.00
2018-01-03T18:50:08.451Z,73.37
2018-01-03T18:52:18.870Z,67.53
2018-01-03T18:54:29.181Z,59.90
2018-01-03T18:56:39.256Z,79.20
2018-01-03T18:58:49.347Z,74.47
2018-01-03T19:00:59.984Z,48.80
2018-01-03T19:03:10.847Z,52.10
2018-01-03T19:05:21.066Z,48.97
2018-01-03T19:07:31.480Z,54.83
2018-01-03T19:09:42.125Z,50.73
2018-01-03T19:11:52.717Z,49.33
2018-01-03T19:14:03.495Z,47.40
2018-01-03T19:16:13.820Z,50.90
2018-01-03T19:18:25.117Z,49.00
2018-01-03T19:20:35.199Z,47.23
2018-01-03T19:22:45.189Z,46.50
2018-01-03T19:24:55.207Z,47.00
2018-01-03T19:27:05.319Z,49.20
2018-01-03T19:29:15.478Z,46.97
2018-01-03T19:31:25.600Z,47.27
2018-01-03T19:33:39.074Z,45.57
2018-01-03T19:35:52.937Z,47.37
2018-01-03T19:38:03.080Z,48.50
2018-01-03T19:40:13.362Z,46.20
2018-01-03T19:42:23.461Z,49.57
2018-01-03T19:44:33.761Z,45.37
2018-01-03T19:46:44.106Z,51.10
2018-01-03T19:48:54.326Z,46.63
2018-01-03T19:51:04.594Z,46.77
2018-01-03T19:53:15.283Z,46.13
2018-01-03T19:55:25.585Z,49.90
2018-01-03T19:57:35.966Z,51.13
2018-01-03T19:59:46.475Z,47.07
2018-01-03T20:01:56.946Z,49.03
2018-01-03T20:04:08.144Z,50.00
2018-01-03T20:06:18.356Z,47.97
2018-01-03T20:08:28.580Z,50.80
2018-01-03T20:10:39.693Z,51.50
2018-01-03T20:12:50.126Z,55.60
2018-01-03T20:15:00.487Z,53.27
2018-01-03T20:17:10.833Z,52.70
2018-01-03T20:19:21.374Z,54.20
2018-01-03T20:21:31.381Z,54.30
2018-01-03T20:23:42.103Z,55.73
2018-01-03T20:25:52.328Z,55.97
2018-01-03T20:28:02.341Z,57.47
2018-01-03T20:30:12.464Z,60.90
2018-01-03T20:32:22.652Z,60.60
2018-01-03T20:34:32.888Z,57.17
2018-01-03T20:36:43.795Z,63.60
2018-01-03T20:38:54.858Z,62.20
2018-01-03T20:41:05.351Z,56.83
2018-01-03T20:43:15.455Z,58.80
2018-01-03T20:45:25.862Z,58.30
2018-01-03T20:47:36.117Z,61.23
2018-01-03T20:49:46.423Z,63.13
2018-01-03T20:51:57.013Z,58.17
2018-01-03T20:54:07.006Z,55.30
2018-01-03T20:56:17.130Z,53.80
2018-01-03T20:58:28.655Z,56.83
2018-01-03T21:00:38.817Z,58.33
2018-01-03T21:02:48.992Z,54.80
2018-01-03T21:05:02.009Z,54.60
2018-01-03T21:07:12.164Z,51.67
2018-01-03T21:09:22.790Z,54.03
2018-01-03T21:11:33.293Z,52.83
2018-01-03T21:13:43.667Z,50.90
2018-01-03T21:15:54.530Z,49.53
2018-01-03T21:18:04.805Z,50.60
2018-01-03T21:20:15.108Z,49.10
2018-01-03T21:22:25.260Z,50.10
2018-01-03T21:24:35.500Z,48.77
2018-01-03T21:26:45.687Z,49.60
2018-01-03T21:28:56.072Z,48.07
2018-01-03T21:31:06.450Z,49.00
2018-01-03T21:33:16.495Z,50.43
2018-01-03T21:35:26.602Z,51.90
2018-01-03T21:37:36.981Z,49.60
2018-01-03T21:39:47.015Z,49.23
2018-01-03T21:41:57.186Z,47.23
2018-01-03T21:44:07.258Z,49.60
2018-01-03T21:46:17.382Z,49.83
2018-01-03T21:48:27.797Z,47.70
2018-01-03T21:51:03.769Z,48.80
2018-01-03T21:53:14.004Z,48.20
2018-01-03T21:55:24.557Z,49.83
2018-01-03T21:57:34.908Z,49.40
2018-01-03T21:59:45.199Z,48.10
2018-01-03T22:01:55.291Z,46.73
2018-01-03T22:04:05.564Z,48.63
2018-01-03T22:06:15.741Z,47.50
2018-01-03T22:08:25.930Z,48.17
2018-01-03T22:10:36.072Z,46.27
2018-01-03T22:12:46.141Z,47.47
2018-01-03T22:14:56.956Z,46.77
2018-01-03T22:17:07.211Z,47.07
2018-01-03T22:19:17.261Z,45.50
2018-01-03T22:21:27.793Z,45.27
2018-01-03T22:23:38.071Z,46.50
